Time;durP1;ratioP1;P1;durP2;ratioP2;P2;SDS_P1;SDS_P2;PMS_P1;PMS_P2;Temp;Humidity;BMP_temperature;BMP_pressure;BME280_temperature;BME280_humidity;BME280_pressure;Samples;Min_cycle;Max_cycle;Signal;HPM_P1;HPM_P2
2023/02/06 00:00:56;;;;;;;13.40;8.50;;;;;;;1.91;59.42;101981.38;108324;1254;60178;-79
2023/02/06 00:03:27;;;;;;;13.80;7.60;;;;;;;1.96;59.25;101985.26;108360;1256;60331;-78
2023/02/06 00:05:56;;;;;;;12.70;7.60;;;;;;;1.96;59.09;101982.98;108260;1255;74049;-78
2023/02/06 00:08:26;;;;;;;13.10;7.80;;;;;;;1.97;59.13;101983.25;108300;1255;72045;-79
2023/02/06 00:10:54;;;;;;;11.70;7.50;;;;;;;1.97;59.02;101982.30;108319;1257;73912;-78
2023/02/06 00:13:29;;;;;;;12.50;7.40;;;;;;;1.98;59.13;101984.58;108368;1254;60414;-79
2023/02/06 00:15:56;;;;;;;11.80;7.80;;;;;;;1.97;59.17;101987.06;108505;1253;59904;-78
2023/02/06 00:18:25;;;;;;;12.80;7.90;;;;;;;1.97;59.18;101984.83;108705;1254;73908;-74
2023/02/06 00:20:53;;;;;;;12.80;7.70;;;;;;;1.96;59.19;101987.08;108759;1254;72650;-78
2023/02/06 00:23:23;;;;;;;12.10;7.60;;;;;;;1.98;59.32;101985.98;108747;1254;73019;-77
2023/02/06 00:25:50;;;;;;;14.90;8.60;;;;;;;2.00;59.32;101988.29;108811;1254;60226;-78
2023/02/06 00:28:17;;;;;;;13.10;8.30;;;;;;;2.02;59.18;101987.36;108646;1254;60288;-78
2023/02/06 00:30:46;;;;;;;13.90;8.10;;;;;;;2.03;59.42;101989.04;108409;1254;73270;-78
2023/02/06 00:33:16;;;;;;;14.20;8.50;;;;;;;2.03;59.50;101993.06;108386;1255;70616;-79
2023/02/06 00:35:44;;;;;;;14.50;8.60;;;;;;;2.03;59.66;101988.76;108821;1254;72236;-78
2023/02/06 00:38:14;;;;;;;11.40;7.90;;;;;;;2.02;59.66;101985.86;108380;1254;61226;-79
2023/02/06 00:40:41;;;;;;;14.90;8.60;;;;;;;2.09;59.68;101984.92;108377;1257;60740;-79
2023/02/06 00:43:08;;;;;;;13.30;8.00;;;;;;;2.04;59.83;101985.83;108231;1255;75044;-79
2023/02/06 00:45:36;;;;;;;14.00;9.10;;;;;;;2.02;60.02;101987.04;108319;1255;72225;-78
2023/02/06 00:48:03;;;;;;;13.10;8.50;;;;;;;2.02;60.21;101982.70;108153;1254;71574;-79
2023/02/06 00:50:32;;;;;;;13.70;8.40;;;;;;;2.02;60.40;101985.48;108304;1254;61233;-77
2023/02/06 00:52:59;;;;;;;15.20;9.20;;;;;;;2.00;60.55;101982.13;108294;1254;60595;-78
2023/02/06 00:55:26;;;;;;;14.60;9.10;;;;;;;1.99;60.94;101980.55;108156;1254;72862;-78
2023/02/06 00:57:54;;;;;;;12.10;8.00;;;;;;;1.98;61.13;101980.29;108286;1254;72897;-78
2023/02/06 01:00:21;;;;;;;14.80;8.70;;;;;;;1.99;61.38;101979.86;108268;1253;72592;-79
2023/02/06 01:02:48;;;;;;;14.30;8.90;;;;;;;1.99;61.43;101980.23;108151;1257;60215;-78
2023/02/06 01:05:15;;;;;;;12.70;8.40;;;;;;;2.00;61.69;101977.81;108375;1254;61282;-79
2023/02/06 01:07:45;;;;;;;11.70;7.90;;;;;;;1.98;61.76;101976.51;108321;1254;72719;-77
2023/02/06 01:10:12;;;;;;;15.10;8.80;;;;;;;1.94;62.01;101977.46;108330;1254;72008;-77
2023/02/06 01:12:39;;;;;;;14.70;8.90;;;;;;;1.88;62.29;101977.82;108128;1254;73600;-79
2023/02/06 01:15:08;;;;;;;14.20;9.00;;;;;;;1.82;62.52;101976.39;108344;1254;60693;-78
2023/02/06 01:17:38;;;;;;;15.80;9.50;;;;;;;1.79;62.73;101980.93;108339;1255;60308;-77
2023/02/06 01:20:09;;;;;;;15.30;9.10;;;;;;;1.77;62.97;101978.94;108230;1253;74668;-77
2023/02/06 01:22:36;;;;;;;13.70;9.30;;;;;;;1.78;63.07;101980.17;108218;1254;71282;-76
2023/02/06 01:25:05;;;;;;;12.90;8.70;;;;;;;1.76;63.27;101982.09;108336;1254;72435;-79
2023/02/06 01:27:36;;;;;;;14.40;8.80;;;;;;;1.77;63.55;101983.08;108560;1254;60547;-78
2023/02/06 01:30:07;;;;;;;13.30;9.00;;;;;;;1.77;63.64;101985.90;108270;1254;60306;-78
2023/02/06 01:32:36;;;;;;;14.00;8.80;;;;;;;1.79;63.87;101986.41;108377;1254;72821;-78
2023/02/06 01:35:04;;;;;;;15.70;9.90;;;;;;;1.80;63.84;101989.80;108769;1252;71831;-76
2023/02/06 01:37:35;;;;;;;;;;;;;;;1.86;63.72;101989.71;108797;1254;71424;-77
2023/02/06 01:40:05;;;;;;;13.80;8.70;;;;;;;1.85;63.86;101989.45;108767;1253;60853;-74
2023/02/06 01:42:36;;;;;;;13.20;8.20;;;;;;;1.83;63.79;101987.36;108847;1254;59643;-77
2023/02/06 01:45:25;;;;;;;12.90;8.80;;;;;;;1.82;63.85;101988.39;108913;1254;71554;-76
2023/02/06 01:48:05;;;;;;;12.60;8.60;;;;;;;1.80;63.87;101990.16;108857;1252;70719;-78
2023/02/06 01:50:42;;;;;;;12.10;8.60;;;;;;;1.78;63.84;101989.17;108884;1253;72780;-75
2023/02/06 01:53:09;;;;;;;13.60;9.10;;;;;;;1.79;63.84;101989.38;108492;1254;60361;-77
2023/02/06 01:55:36;;;;;;;13.20;8.20;;;;;;;1.84;64.07;101989.39;108081;1254;60319;-77
2023/02/06 01:58:04;;;;;;;12.30;8.00;;;;;;;1.86;63.92;101984.73;108183;1254;74263;-77
2023/02/06 02:00:34;;;;;;;12.10;8.30;;;;;;;1.84;63.90;101984.77;108159;1254;72896;-78
2023/02/06 02:03:02;;;;;;;11.40;7.80;;;;;;;1.81;63.86;101985.79;108293;1257;70823;-78
2023/02/06 02:05:31;;;;;;;13.10;8.20;;;;;;;1.80;63.92;101987.16;108204;1254;61410;-79
2023/02/06 02:08:14;;;;;;;11.70;7.80;;;;;;;1.80;63.97;101993.26;108162;1254;61677;-79
2023/02/06 02:10:41;;;;;;;12.80;8.20;;;;;;;1.84;63.97;101993.95;108218;1254;74450;-78
2023/02/06 02:13:08;;;;;;;12.90;8.20;;;;;;;1.85;63.83;101997.55;108286;1254;71673;-79
2023/02/06 02:15:48;;;;;;;12.30;8.10;;;;;;;1.84;63.83;101998.13;108169;1257;72058;-79
2023/02/06 02:18:40;;;;;;;11.70;7.60;;;;;;;1.83;63.80;102003.30;108189;1254;60326;-78
2023/02/06 02:21:13;;;;;;;11.00;6.80;;;;;;;1.81;63.69;102005.09;108137;1254;60257;-78
2023/02/06 02:23:51;;;;;;;12.00;8.00;;;;;;;1.77;63.60;102006.44;108192;1254;72886;-78
2023/02/06 02:26:36;;;;;;;12.40;8.00;;;;;;;1.75;63.74;102006.17;108253;1254;73933;-80
2023/02/06 02:29:31;;;;;;;10.50;7.30;;;;;;;1.73;63.79;102009.13;108187;1254;72161;-78
2023/02/06 02:32:24;;;;;;;12.40;8.30;;;;;;;1.68;63.71;102016.02;108251;1254;62512;-80
2023/02/06 02:35:11;;;;;;;13.80;8.30;;;;;;;1.64;63.67;102015.92;108039;1254;61118;-79
2023/02/06 02:38:18;;;;;;;12.20;8.10;;;;;;;1.62;63.66;102016.26;108180;1254;73245;-79
2023/02/06 02:40:56;;;;;;;11.30;7.60;;;;;;;1.63;63.67;102011.94;108187;1254;71950;-81
2023/02/06 02:43:43;;;;;;;13.10;8.10;;;;;;;1.62;63.76;102018.97;108203;1254;73504;-78
2023/02/06 02:46:21;;;;;;;11.60;7.90;;;;;;;1.61;63.65;102020.47;108218;1253;62223;-78
2023/02/06 02:48:50;;;;;;;12.80;8.30;;;;;;;1.58;63.58;102021.45;108109;1254;60434;-78
2023/02/06 02:51:17;;;;;;;13.70;9.10;;;;;;;1.58;63.47;102024.23;108019;1254;73873;-77
2023/02/06 02:53:45;;;;;;;12.00;7.90;;;;;;;1.58;63.53;102031.85;108133;1257;73727;-77
2023/02/06 02:56:21;;;;;;;12.60;8.50;;;;;;;1.56;63.47;102033.20;107925;1254;72451;-79
2023/02/06 02:58:57;;;;;;;12.90;8.30;;;;;;;1.55;63.38;102035.16;108063;1254;61179;-79
2023/02/06 03:01:34;;;;;;;12.90;8.20;;;;;;;1.54;63.32;102033.95;108043;1254;60446;-78
2023/02/06 03:04:11;;;;;;;12.20;8.20;;;;;;;1.54;63.40;102037.46;108090;1254;74823;-78
2023/02/06 03:06:55;;;;;;;12.50;8.30;;;;;;;1.55;63.22;102038.60;108102;1254;72796;-78
2023/02/06 03:09:51;;;;;;;11.90;8.20;;;;;;;1.57;63.03;102043.50;108225;1257;71886;-78
2023/02/06 03:12:38;;;;;;;13.40;9.10;;;;;;;1.60;62.90;102046.14;107979;1254;62020;-80
2023/02/06 03:15:26;;;;;;;13.90;9.00;;;;;;;1.60;62.63;102044.23;108154;1254;60469;-79
2023/02/06 03:18:15;;;;;;;14.70;9.50;;;;;;;1.59;62.70;102047.16;108191;1254;74416;-78
2023/02/06 03:20:43;;;;;;;14.70;9.20;;;;;;;1.59;62.64;102042.71;108306;1257;72850;-77
2023/02/06 03:23:20;;;;;;;12.30;8.10;;;;;;;1.59;62.37;102044.20;108226;1254;72985;-78
2023/02/06 03:25:50;;;;;;;12.30;7.90;;;;;;;1.56;62.36;102045.70;108166;1254;62390;-78
2023/02/06 03:28:20;;;;;;;11.50;8.20;;;;;;;1.54;62.25;102045.89;108147;1254;60015;-78
2023/02/06 03:30:47;;;;;;;13.00;8.30;;;;;;;1.52;62.01;102046.35;108113;1254;73625;-78
2023/02/06 03:33:16;;;;;;;11.40;7.60;;;;;;;1.47;62.04;102043.66;108241;1254;73986;-77
2023/02/06 03:35:43;;;;;;;12.30;8.50;;;;;;;1.42;61.96;102045.83;107875;1254;73836;-79
2023/02/06 03:38:10;;;;;;;12.20;8.30;;;;;;;1.37;62.08;102045.91;107976;1254;60542;-78
2023/02/06 03:40:38;;;;;;;12.70;8.90;;;;;;;1.36;61.99;102055.56;108244;1254;60365;-77
2023/02/06 03:43:05;;;;;;;11.10;7.70;;;;;;;1.37;62.27;102056.44;108282;1254;72950;-78
2023/02/06 03:45:38;;;;;;;12.50;8.30;;;;;;;1.40;62.09;102059.12;107954;1254;73153;-79
2023/02/06 03:48:09;;;;;;;11.50;7.90;;;;;;;1.43;62.12;102059.55;108043;1257;73288;-78
2023/02/06 03:50:38;;;;;;;11.90;8.20;;;;;;;1.46;62.27;102059.89;108074;1254;62355;-78
2023/02/06 03:53:06;;;;;;;11.70;7.80;;;;;;;1.49;62.18;102058.02;108028;1254;61110;-78
2023/02/06 03:55:35;;;;;;;11.20;7.60;;;;;;;1.53;62.07;102062.85;108064;1254;74707;-78
2023/02/06 03:58:05;;;;;;;12.90;7.50;;;;;;;1.56;62.05;102064.01;108126;1254;73098;-77
2023/02/06 04:00:33;;;;;;;13.60;8.90;;;;;;;1.57;61.96;102064.06;108106;1260;73481;-78
2023/02/06 04:03:00;;;;;;;14.70;9.10;;;;;;;1.57;61.94;102062.46;108049;1254;61419;-78
2023/02/06 04:05:26;;;;;;;13.20;8.50;;;;;;;1.58;61.84;102066.94;108055;1254;61423;-77
2023/02/06 04:07:56;;;;;;;12.90;8.20;;;;;;;1.59;61.73;102066.95;108226;1254;74465;-78
2023/02/06 04:10:23;;;;;;;11.90;8.20;;;;;;;1.60;61.94;102070.92;108011;1254;72161;-78
2023/02/06 04:12:53;;;;;;;10.00;7.00;;;;;;;1.58;61.77;102066.57;108114;1254;71932;-78
2023/02/06 04:15:20;;;;;;;12.20;8.40;;;;;;;1.55;61.72;102065.45;108076;1254;61361;-79
2023/02/06 04:17:48;;;;;;;12.50;8.60;;;;;;;1.52;61.80;102063.83;108122;1254;60296;-78
2023/02/06 04:20:27;;;;;;;12.40;9.10;;;;;;;1.50;61.76;102069.91;108196;1254;75003;-79
2023/02/06 04:22:55;;;;;;;13.70;8.70;;;;;;;1.47;61.86;102071.64;108091;1253;72509;-79
2023/02/06 04:25:22;;;;;;;13.20;8.80;;;;;;;1.45;61.90;102074.21;108077;1254;73376;-79
2023/02/06 04:27:50;;;;;;;14.60;8.60;;;;;;;1.45;61.84;102074.08;108136;1254;60400;-79
2023/02/06 04:30:17;;;;;;;13.60;9.10;;;;;;;1.43;61.63;102084.64;108089;1254;61709;-79
2023/02/06 04:32:45;;;;;;;13.40;9.20;;;;;;;1.42;61.70;102082.52;108131;1253;75167;-79
2023/02/06 04:35:12;;;;;;;13.20;8.40;;;;;;;1.39;61.89;102083.61;108133;1254;72021;-79
2023/02/06 04:37:40;;;;;;;13.30;8.70;;;;;;;1.40;61.63;102086.89;108118;1253;72585;-79
2023/02/06 04:40:07;;;;;;;14.30;9.00;;;;;;;1.37;61.76;102084.90;108123;1253;60334;-80
2023/02/06 04:42:35;;;;;;;13.00;8.50;;;;;;;1.35;61.81;102087.92;108126;1254;60302;-78
2023/02/06 04:45:02;;;;;;;14.20;9.00;;;;;;;1.35;61.71;102083.55;108051;1254;74028;-79
2023/02/06 04:47:29;;;;;;;14.20;8.80;;;;;;;1.37;61.74;102087.54;108003;1254;72022;-78
2023/02/06 04:49:56;;;;;;;13.60;8.50;;;;;;;1.36;61.62;102089.88;108052;1254;72034;-78
2023/02/06 04:52:23;;;;;;;12.50;8.40;;;;;;;1.36;61.64;102092.04;108232;1253;60325;-78
2023/02/06 04:54:50;;;;;;;14.90;9.00;;;;;;;1.34;61.77;102092.06;108265;1254;60501;-79
2023/02/06 04:57:17;;;;;;;14.40;9.10;;;;;;;1.35;61.86;102090.00;108375;1254;74759;-78
2023/02/06 04:59:44;;;;;;;13.60;8.50;;;;;;;1.37;61.66;102091.88;108430;1254;72537;-79
2023/02/06 05:02:11;;;;;;;15.00;9.70;;;;;;;1.37;61.77;102094.41;108113;1254;73244;-79
2023/02/06 05:04:38;;;;;;;16.40;10.20;;;;;;;1.37;61.89;102095.80;108074;1254;61194;-79
2023/02/06 05:07:05;;;;;;;16.10;10.10;;;;;;;1.37;61.78;102099.84;108069;1254;61766;-79
2023/02/06 05:09:32;;;;;;;16.80;10.60;;;;;;;1.34;61.82;102099.91;108113;1254;73485;-79
2023/02/06 05:11:59;;;;;;;14.40;9.50;;;;;;;1.33;61.75;102098.29;108189;1253;73052;-77
2023/02/06 05:14:27;;;;;;;13.90;9.60;;;;;;;1.32;61.88;102096.64;108121;1254;73855;-78
2023/02/06 05:16:56;;;;;;;16.40;9.90;;;;;;;1.34;61.92;102095.95;108057;1254;61858;-78
2023/02/06 05:19:22;;;;;;;14.90;9.70;;;;;;;1.35;61.85;102096.31;108156;1254;60571;-78
2023/02/06 05:21:49;;;;;;;15.70;9.90;;;;;;;1.36;61.98;102099.05;108091;1254;72892;-78
2023/02/06 05:24:17;;;;;;;14.90;9.00;;;;;;;1.37;61.92;102093.13;107982;1253;74152;-78
2023/02/06 05:26:45;;;;;;;14.90;9.60;;;;;;;1.38;62.02;102095.83;108022;1254;72843;-78
2023/02/06 05:29:12;;;;;;;16.50;10.30;;;;;;;1.37;61.84;102097.57;108123;1254;60447;-78
2023/02/06 05:31:39;;;;;;;12.90;8.00;;;;;;;1.34;61.85;102099.44;108092;1254;60443;-79
2023/02/06 05:34:08;;;;;;;13.90;9.10;;;;;;;1.30;61.90;102098.27;108142;1254;73900;-78
2023/02/06 05:36:35;;;;;;;15.10;9.30;;;;;;;1.27;61.89;102096.35;108115;1254;70921;-78
2023/02/06 05:39:03;;;;;;;16.20;9.70;;;;;;;1.27;61.93;102099.30;108119;1254;72969;-79
2023/02/06 05:41:33;;;;;;;13.20;8.50;;;;;;;1.27;61.94;102099.77;108143;1254;60434;-79
2023/02/06 05:44:00;;;;;;;15.10;9.50;;;;;;;1.29;61.88;102101.92;108109;1254;60525;-79
2023/02/06 05:46:27;;;;;;;14.20;8.90;;;;;;;1.29;61.81;102101.55;108139;1254;74440;-79
2023/02/06 05:48:54;;;;;;;14.70;9.00;;;;;;;1.30;61.88;102098.30;108144;1253;72310;-79
2023/02/06 05:51:21;;;;;;;13.70;8.60;;;;;;;1.31;61.81;102097.95;108138;1254;72742;-79
2023/02/06 05:53:49;;;;;;;15.60;9.50;;;;;;;1.33;61.78;102097.66;108082;1254;60306;-79
2023/02/06 05:56:16;;;;;;;14.80;9.30;;;;;;;1.32;61.64;102104.86;108212;1254;60541;-79
2023/02/06 05:58:46;;;;;;;14.10;9.00;;;;;;;1.30;61.64;102110.34;108199;1254;71965;-78
2023/02/06 06:01:13;;;;;;;14.20;8.80;;;;;;;1.30;61.69;102115.15;108076;1253;73797;-79
2023/02/06 06:03:42;;;;;;;15.60;10.30;;;;;;;1.31;61.69;102114.52;108020;1256;71847;-78
2023/02/06 06:06:08;;;;;;;15.10;9.70;;;;;;;1.30;61.58;102114.23;107998;1253;60734;-77
2023/02/06 06:08:36;;;;;;;11.70;8.30;;;;;;;1.31;61.58;102117.45;108106;1254;60437;-76
2023/02/06 06:11:03;;;;;;;13.10;8.60;;;;;;;1.33;61.29;102114.63;108180;1254;73330;-78
2023/02/06 06:13:30;;;;;;;13.90;8.40;;;;;;;1.35;61.46;102112.66;108078;1254;72922;-77
2023/02/06 06:15:56;;;;;;;12.20;8.20;;;;;;;1.37;61.45;102116.37;108105;1254;70522;-77
2023/02/06 06:18:24;;;;;;;16.10;9.40;;;;;;;1.37;61.32;102112.39;108170;1254;61111;-77
2023/02/06 06:20:50;;;;;;;13.50;8.80;;;;;;;1.40;61.12;102110.89;108172;1253;60296;-76
2023/02/06 06:23:18;;;;;;;14.10;9.00;;;;;;;1.42;61.26;102112.30;108203;1254;73902;-77
2023/02/06 06:25:45;;;;;;;14.00;9.30;;;;;;;1.46;61.22;102114.52;108140;1254;72977;-77
2023/02/06 06:28:12;;;;;;;13.50;8.60;;;;;;;1.48;61.19;102118.33;108162;1254;71818;-77
2023/02/06 06:30:39;;;;;;;15.70;9.80;;;;;;;1.51;60.99;102119.48;108111;1254;60187;-77
2023/02/06 06:33:06;;;;;;;12.90;7.80;;;;;;;1.52;60.91;102120.91;108121;1254;60370;-77
2023/02/06 06:35:33;;;;;;;12.90;8.40;;;;;;;1.51;60.72;102122.58;108078;1254;74247;-76
2023/02/06 06:38:00;;;;;;;13.40;8.50;;;;;;;1.52;60.66;102127.39;108289;1254;73857;-79
2023/02/06 06:40:28;;;;;;;13.60;8.80;;;;;;;1.58;60.79;102128.14;108193;1254;71531;-77
2023/02/06 06:42:55;;;;;;;14.60;8.90;;;;;;;1.65;60.60;102130.10;108131;1254;59802;-77
2023/02/06 06:45:22;;;;;;;14.30;9.40;;;;;;;1.69;60.43;102133.02;108106;1254;61187;-78
2023/02/06 06:47:49;;;;;;;12.50;7.90;;;;;;;1.72;60.09;102129.94;108124;1254;74868;-77
2023/02/06 06:50:16;;;;;;;15.00;9.60;;;;;;;1.74;60.29;102124.45;108183;1254;72919;-77
2023/02/06 06:52:43;;;;;;;14.40;8.90;;;;;;;1.79;60.14;102123.36;108131;1254;72730;-78
2023/02/06 06:55:10;;;;;;;15.00;8.90;;;;;;;1.84;59.90;102124.54;108080;1254;61532;-78
2023/02/06 06:57:37;;;;;;;13.50;8.40;;;;;;;1.86;59.81;102125.77;108058;1254;60440;-77
2023/02/06 07:00:04;;;;;;;12.60;8.10;;;;;;;1.89;59.61;102127.78;108177;1253;74906;-77
2023/02/06 07:02:32;;;;;;;13.20;8.90;;;;;;;1.91;59.41;102132.48;108161;1253;71961;-77
2023/02/06 07:04:59;;;;;;;11.70;8.20;;;;;;;1.93;59.15;102132.33;108177;1254;71825;-77
2023/02/06 07:07:26;;;;;;;13.10;8.50;;;;;;;1.95;59.16;102132.80;108045;1254;60375;-78
2023/02/06 07:09:53;;;;;;;14.90;9.80;;;;;;;1.97;58.98;102133.29;108137;1254;59741;-77
2023/02/06 07:12:22;;;;;;;14.10;9.20;;;;;;;2.00;58.80;102133.96;108056;1254;73475;-77
2023/02/06 07:14:50;;;;;;;12.60;8.00;;;;;;;2.02;58.67;102136.56;108152;1254;72813;-77
2023/02/06 07:17:17;;;;;;;11.80;8.20;;;;;;;2.06;58.64;102138.84;108120;1254;72087;-77
2023/02/06 07:19:51;;;;;;;12.70;7.90;;;;;;;2.10;58.49;102142.27;108121;1254;60348;-77
2023/02/06 07:22:18;;;;;;;13.20;8.10;;;;;;;2.10;58.36;102146.23;108158;1254;60661;-78
2023/02/06 07:24:46;;;;;;;13.40;8.50;;;;;;;2.10;58.35;102148.70;108152;1254;74037;-78
2023/02/06 07:27:13;;;;;;;13.00;8.10;;;;;;;2.14;58.51;102148.52;108102;1254;73005;-77
2023/02/06 07:29:40;;;;;;;14.90;9.00;;;;;;;2.19;58.32;102147.14;108050;1254;71791;-78
2023/02/06 07:32:09;;;;;;;14.90;9.70;;;;;;;2.24;58.13;102149.98;108072;1253;61111;-76
2023/02/06 07:34:36;;;;;;;13.90;9.10;;;;;;;2.29;57.90;102152.36;108091;1253;60373;-76
2023/02/06 07:37:03;;;;;;;13.60;8.90;;;;;;;2.32;58.07;102149.89;108124;1254;72085;-76
2023/02/06 07:39:31;;;;;;;12.70;8.10;;;;;;;2.33;57.66;102150.74;108057;1254;73372;-77
2023/02/06 07:41:58;;;;;;;12.70;7.80;;;;;;;2.38;57.80;102153.69;108131;1253;73630;-78
2023/02/06 07:44:30;;;;;;;13.30;8.50;;;;;;;2.41;57.46;102152.48;108122;1253;60318;-77
2023/02/06 07:46:57;;;;;;;12.80;8.40;;;;;;;2.42;57.32;102149.81;108116;1254;61300;-78
2023/02/06 07:49:26;;;;;;;14.20;9.40;;;;;;;2.45;57.42;102155.08;108147;1254;73353;-77
2023/02/06 07:51:52;;;;;;;13.20;8.40;;;;;;;2.50;57.36;102154.16;108121;1257;73719;-77
2023/02/06 07:54:20;;;;;;;13.00;8.40;;;;;;;2.52;57.25;102153.03;108040;1254;71702;-77
2023/02/06 07:56:47;;;;;;;14.50;8.30;;;;;;;2.52;57.06;102151.43;107969;1254;62188;-75
2023/02/06 07:59:14;;;;;;;12.00;7.90;;;;;;;2.56;57.17;102152.52;108129;1257;60242;-75
2023/02/06 08:01:42;;;;;;;13.90;8.20;;;;;;;2.61;57.22;102149.88;107963;1255;194552;-75
2023/02/06 08:04:09;;;;;;;12.20;8.00;;;;;;;2.60;56.89;102154.20;108138;1254;72851;-75
2023/02/06 08:06:40;;;;;;;13.90;8.50;;;;;;;2.54;56.64;102148.59;108122;1254;71963;-75
2023/02/06 08:09:12;;;;;;;13.40;8.20;;;;;;;2.55;56.73;102151.16;108130;1254;61044;-79
2023/02/06 08:11:46;;;;;;;14.30;8.80;;;;;;;2.55;56.55;102151.20;108126;1254;60348;-75
2023/02/06 08:14:13;;;;;;;16.00;9.50;;;;;;;2.56;56.61;102159.17;108106;1253;72275;-74
2023/02/06 08:16:40;;;;;;;14.30;9.40;;;;;;;2.61;56.74;102155.09;108050;1254;70913;-75
2023/02/06 08:19:09;;;;;;;14.50;9.20;;;;;;;2.73;56.50;102154.55;108018;1254;71895;-75
2023/02/06 08:21:36;;;;;;;14.90;8.70;;;;;;;2.82;56.36;102157.09;108023;1254;60319;-77
2023/02/06 08:24:04;;;;;;;15.00;8.90;;;;;;;2.91;56.04;102160.64;108064;1254;60315;-76
2023/02/06 08:26:32;;;;;;;13.40;7.30;;;;;;;2.95;55.49;102159.92;108002;1257;73931;-77
2023/02/06 08:29:00;;;;;;;11.30;7.60;;;;;;;2.91;55.03;102164.30;108069;1253;72001;-78
2023/02/06 08:31:29;;;;;;;11.60;7.10;;;;;;;2.89;54.76;102164.20;108054;1256;72651;-77
2023/02/06 08:33:57;;;;;;;12.10;7.50;;;;;;;2.95;54.84;102166.41;108108;1253;60287;-78
2023/02/06 08:36:24;;;;;;;13.20;8.10;;;;;;;3.00;54.57;102167.95;107966;1254;60255;-75
2023/02/06 08:38:51;;;;;;;11.90;7.30;;;;;;;3.03;54.17;102167.79;107983;1254;73215;-75
2023/02/06 08:41:21;;;;;;;11.10;7.90;;;;;;;3.03;54.11;102167.89;107998;1254;72821;-74
2023/02/06 08:43:49;;;;;;;10.90;6.90;;;;;;;3.07;53.99;102168.57;107985;1254;71765;-74
2023/02/06 08:46:16;;;;;;;9.70;6.30;;;;;;;3.09;53.60;102165.54;108220;1254;60583;-75
2023/02/06 08:48:43;;;;;;;11.10;6.70;;;;;;;3.13;53.35;102167.20;108131;1253;60228;-75
2023/02/06 08:51:10;;;;;;;10.00;6.60;;;;;;;3.19;53.02;102168.38;108068;1253;72301;-76
2023/02/06 08:53:38;;;;;;;11.00;7.40;;;;;;;3.21;53.11;102171.95;108156;1253;72046;-75
2023/02/06 08:56:09;;;;;;;12.10;7.30;;;;;;;3.28;53.21;102174.53;108114;1258;73771;-75
2023/02/06 08:58:37;;;;;;;10.40;6.20;;;;;;;3.36;52.77;102169.27;108034;1254;62215;-75
2023/02/06 09:01:08;;;;;;;9.20;5.90;;;;;;;3.36;52.16;102177.53;108154;1254;60814;-75
2023/02/06 09:03:36;;;;;;;8.70;5.60;;;;;;;3.33;51.53;102167.86;108168;1254;73251;-75
2023/02/06 09:06:03;;;;;;;10.50;6.60;;;;;;;3.31;51.21;102170.05;108118;1254;71591;-74
2023/02/06 09:08:37;;;;;;;8.60;5.50;;;;;;;3.31;50.94;102165.13;108148;1254;73492;-74
2023/02/06 09:11:07;;;;;;;8.30;5.20;;;;;;;3.25;50.33;102171.46;108131;1254;60596;-75
2023/02/06 09:13:36;;;;;;;8.60;5.20;;;;;;;3.20;50.49;102170.56;108195;1253;60296;-76
2023/02/06 09:16:03;;;;;;;9.30;6.00;;;;;;;3.16;50.72;102171.96;108134;1254;73494;-75
2023/02/06 09:18:30;;;;;;;8.90;5.80;;;;;;;3.19;50.90;102168.84;108273;1254;72168;-74
2023/02/06 09:21:05;;;;;;;9.20;5.70;;;;;;;3.23;50.63;102167.19;108226;1254;73874;-75
2023/02/06 09:23:33;;;;;;;9.30;6.20;;;;;;;3.22;50.47;102167.26;108068;1254;60434;-75
2023/02/06 09:26:00;;;;;;;9.50;6.10;;;;;;;3.23;50.33;102168.55;108196;1253;62354;-75
2023/02/06 09:28:29;;;;;;;8.80;5.60;;;;;;;3.27;50.20;102164.27;108193;1254;74950;-74
2023/02/06 09:30:56;;;;;;;10.30;5.70;;;;;;;3.31;49.88;102169.52;108131;1254;71804;-75
2023/02/06 09:33:24;;;;;;;8.60;5.40;;;;;;;3.30;49.43;102161.85;108152;1254;71707;-73
2023/02/06 09:36:13;;;;;;;9.30;5.50;;;;;;;3.33;49.74;102165.87;108190;1253;60450;-77
2023/02/06 09:38:43;;;;;;;8.50;5.30;;;;;;;3.33;49.06;102166.95;108148;1253;59743;-75
2023/02/06 09:41:17;;;;;;;7.50;4.70;;;;;;;3.24;48.15;102163.55;108123;1259;73332;-75
2023/02/06 09:43:57;;;;;;;9.30;5.30;;;;;;;3.13;47.69;102168.54;108206;1254;74088;-74
2023/02/06 09:46:30;;;;;;;9.60;5.30;;;;;;;3.02;47.93;102162.73;108452;1253;71305;-75
2023/02/06 09:49:01;;;;;;;7.70;5.10;;;;;;;2.99;48.14;102169.61;108525;1254;60492;-77
2023/02/06 09:51:40;;;;;;;8.90;5.10;;;;;;;2.96;47.86;102168.00;108475;1254;61543;-74
2023/02/06 09:54:27;;;;;;;8.30;5.30;;;;;;;3.00;48.13;102165.60;108359;1253;73586;-76
2023/02/06 09:57:14;;;;;;;7.10;4.70;;;;;;;3.06;48.44;102161.08;108430;1254;72661;-76
2023/02/06 09:59:57;;;;;;;9.60;5.70;;;;;;;3.11;48.15;102161.91;108439;1254;70751;-78
2023/02/06 10:03:04;;;;;;;7.90;4.70;;;;;;;3.05;47.82;102167.00;108296;1254;59199;-74
2023/02/06 10:05:31;;;;;;;7.50;4.90;;;;;;;3.00;47.72;102167.20;108144;1254;60929;-72
2023/02/06 10:08:10;;;;;;;8.20;4.80;;;;;;;2.99;47.91;102168.34;108145;1254;74846;-74
2023/02/06 10:10:41;;;;;;;7.90;5.10;;;;;;;2.97;47.81;102169.09;108223;1254;73975;-75
2023/02/06 10:13:34;;;;;;;9.00;5.50;;;;;;;2.93;47.64;102169.98;108205;1257;73287;-74
2023/02/06 10:16:21;;;;;;;9.60;5.60;;;;;;;2.90;47.68;102167.15;108204;1254;60566;-74
2023/02/06 10:18:52;;;;;;;8.80;5.50;;;;;;;2.89;47.97;102168.60;108209;1254;60443;-74
2023/02/06 10:21:23;;;;;;;8.20;4.80;;;;;;;2.91;47.76;102166.95;108102;1256;72563;-78
2023/02/06 10:24:16;;;;;;;7.60;4.50;;;;;;;2.87;47.25;102159.98;108055;1254;71902;-76
2023/02/06 10:26:42;;;;;;;7.30;4.20;;;;;;;2.83;46.97;102159.77;108139;1254;71159;-76
2023/02/06 10:29:22;;;;;;;7.00;4.40;;;;;;;2.79;46.67;102149.48;107959;1254;60418;-74
2023/02/06 10:32:02;;;;;;;7.40;4.40;;;;;;;2.80;46.41;102148.31;108078;1254;61349;-74
2023/02/06 10:34:58;;;;;;;6.40;4.10;;;;;;;2.83;46.30;102146.43;108128;1254;73329;-74
2023/02/06 10:38:16;;;;;;;7.70;4.90;;;;;;;2.99;46.39;102143.11;108170;1254;73714;-74
2023/02/06 10:41:20;;;;;;;6.70;3.70;;;;;;;3.26;45.14;102131.79;107831;1254;72480;-77
2023/02/06 10:44:22;;;;;;;6.90;3.80;;;;;;;3.45;44.05;102134.77;108158;1254;60305;-76
2023/02/06 10:46:49;;;;;;;5.50;3.20;;;;;;;3.52;42.83;102137.20;107846;1254;60425;-76
2023/02/06 10:49:35;;;;;;;7.50;3.60;;;;;;;3.56;42.66;102137.27;108043;1254;74184;-76
2023/02/06 10:52:13;;;;;;;5.90;3.90;;;;;;;3.60;43.10;102138.23;108079;1254;72754;-76
2023/02/06 10:54:45;;;;;;;5.90;3.70;;;;;;;3.61;42.74;102142.17;108025;1259;72173;-76
2023/02/06 10:57:15;;;;;;;5.10;3.10;;;;;;;3.60;43.26;102145.32;108098;1254;60320;-78
2023/02/06 10:59:46;;;;;;;8.70;4.80;;;;;;;3.59;43.69;102142.27;108164;1254;60302;-76
2023/02/06 11:02:22;;;;;;;7.70;4.20;;;;;;;3.55;43.84;102142.91;108188;1254;72879;-76
2023/02/06 11:05:13;;;;;;;7.20;4.30;;;;;;;3.51;44.02;102141.48;108136;1254;73096;-75
2023/02/06 11:07:43;;;;;;;6.40;4.00;;;;;;;3.47;43.82;102139.69;108207;1254;74373;-75
2023/02/06 11:10:13;;;;;;;6.40;4.20;;;;;;;3.44;44.12;102141.95;108118;1254;60526;-76
2023/02/06 11:12:43;;;;;;;7.00;4.30;;;;;;;3.44;43.83;102137.19;108200;1254;60351;-75
2023/02/06 11:15:22;;;;;;;6.30;4.10;;;;;;;3.41;43.91;102138.84;107987;1254;73274;-75
2023/02/06 11:17:50;;;;;;;6.80;4.10;;;;;;;3.37;43.80;102132.33;108259;1254;73688;-76
2023/02/06 11:20:23;;;;;;;9.60;6.60;;;;;;;3.36;44.97;102130.23;108261;1254;71733;-75
2023/02/06 11:22:50;;;;;;;10.10;6.50;;;;;;;3.34;46.79;102133.59;108237;1257;60342;-76
2023/02/06 11:25:24;;;;;;;9.70;5.70;;;;;;;3.29;47.77;102132.21;108192;1254;59025;-76
2023/02/06 11:27:50;;;;;;;8.60;5.90;;;;;;;3.23;48.23;102134.31;108220;1254;73349;-75
2023/02/06 11:30:37;;;;;;;10.70;6.70;;;;;;;3.18;48.58;102137.85;108127;1254;72041;-76
2023/02/06 11:33:17;;;;;;;9.10;6.00;;;;;;;3.12;48.84;102138.84;108147;1254;71678;-75
2023/02/06 11:35:53;;;;;;;8.40;5.60;;;;;;;3.06;48.69;102137.00;108150;1258;60558;-77
2023/02/06 11:38:23;;;;;;;8.80;5.80;;;;;;;3.02;48.29;102137.99;108245;1253;60337;-76